createdAt,value
2018-03-02T00:02:32.412Z,42.00
2018-03-02T00:05:04.840Z,42.80
2018-03-02T00:07:32.527Z,42.80
2018-03-02T00:10:03.463Z,43.00
2018-03-02T00:15:33.866Z,42.80
2018-03-02T00:18:04.573Z,43.10
2018-03-02T00:20:34.058Z,42.40
2018-03-02T00:23:26.590Z,42.20
2018-03-02T00:26:00.017Z,41.90
2018-03-02T00:28:36.770Z,41.60
2018-03-02T00:31:04.908Z,41.60
2018-03-02T00:33:38.657Z,41.60
2018-03-02T00:36:24.267Z,41.40
2018-03-02T00:39:00.764Z,41.30
2018-03-02T00:41:34.510Z,41.50
2018-03-02T00:44:03.297Z,41.80
2018-03-02T00:46:37.133Z,41.80
2018-03-02T00:49:29.658Z,41.80
2018-03-02T00:52:12.191Z,41.80
2018-03-02T00:54:39.695Z,42.00
2018-03-02T00:57:09.810Z,42.10
2018-03-02T00:59:40.102Z,42.90
2018-03-02T01:02:12.351Z,42.50
2018-03-02T01:04:39.876Z,42.30
2018-03-02T01:07:12.428Z,42.50
2018-03-02T01:09:39.990Z,42.50
2018-03-02T01:12:10.579Z,42.60
2018-03-02T01:14:38.116Z,42.80
2018-03-02T01:17:06.538Z,43.10
2018-03-02T01:19:38.275Z,43.10
2018-03-02T01:22:06.569Z,43.20
2018-03-02T01:24:36.761Z,43.10
2018-03-02T01:27:05.554Z,43.40
2018-03-02T01:29:35.273Z,43.70
2018-03-02T01:32:05.566Z,43.70
2018-03-02T01:34:37.717Z,43.80
2018-03-02T01:37:06.948Z,43.90
2018-03-02T01:39:35.465Z,43.90
2018-03-02T01:42:11.037Z,43.90
2018-03-02T01:44:38.626Z,44.00
2018-03-02T01:47:13.541Z,43.90
2018-03-02T01:49:41.251Z,44.00
2018-03-02T01:52:13.554Z,44.30
2018-03-02T01:54:41.887Z,44.60
2018-03-02T01:57:13.097Z,44.60
2018-03-02T01:59:40.597Z,44.50
2018-03-02T02:02:14.136Z,44.40
2018-03-02T02:04:41.657Z,44.40
2018-03-02T02:07:13.432Z,44.40
2018-03-02T02:09:41.887Z,44.40
2018-03-02T02:12:14.744Z,44.40
2018-03-02T02:14:42.236Z,44.30
2018-03-02T02:17:12.145Z,44.40
2018-03-02T02:19:39.780Z,44.40
2018-03-02T02:22:07.385Z,44.40
2018-03-02T02:24:35.933Z,44.30
2018-03-02T02:27:07.748Z,44.30
2018-03-02T02:29:41.082Z,44.60
2018-03-02T02:32:09.461Z,45.20
2018-03-02T02:34:36.952Z,44.80
2018-03-02T02:37:07.994Z,44.90
2018-03-02T02:39:38.673Z,44.90
2018-03-02T02:42:12.467Z,45.10
2018-03-02T02:44:40.151Z,45.00
2018-03-02T02:47:09.702Z,45.20
2018-03-02T02:49:38.356Z,45.20
2018-03-02T02:52:10.341Z,45.20
2018-03-02T02:54:50.808Z,45.20
2018-03-02T02:57:21.606Z,45.30
2018-03-02T03:00:04.251Z,45.20
2018-03-02T03:08:14.817Z,45.60
2018-03-02T03:13:29.484Z,45.70
2018-03-02T03:16:06.727Z,45.70
2018-03-02T03:18:35.684Z,45.80
2018-03-02T03:21:08.865Z,45.90
2018-03-02T03:23:42.565Z,46.00
2018-03-02T03:26:12.867Z,45.90
2018-03-02T03:28:54.922Z,45.90
2018-03-02T03:31:30.321Z,45.80
2018-03-02T03:34:06.473Z,46.00
2018-03-02T03:36:35.638Z,45.80
2018-03-02T03:39:11.446Z,45.80
2018-03-02T03:41:39.110Z,46.00
2018-03-02T03:44:20.230Z,46.40
2018-03-02T03:46:55.573Z,46.80
2018-03-02T03:49:32.243Z,46.60
2018-03-02T03:52:07.158Z,46.20
2018-03-02T03:54:47.278Z,46.20
2018-03-02T03:57:18.460Z,46.50
2018-03-02T03:59:46.003Z,46.80
2018-03-02T04:02:16.205Z,47.00
2018-03-02T04:04:44.588Z,46.60
2018-03-02T04:07:14.362Z,46.80
2018-03-02T04:09:41.945Z,46.60
2018-03-02T04:12:15.369Z,46.90
2018-03-02T04:14:42.990Z,47.10
2018-03-02T04:17:13.910Z,47.30
2018-03-02T04:19:41.520Z,47.50
2018-03-02T04:22:09.854Z,47.50
2018-03-02T04:24:40.745Z,47.40
2018-03-02T04:27:09.170Z,47.30
2018-03-02T04:32:17.062Z,47.30
2018-03-02T04:34:44.635Z,46.80
2018-03-02T04:37:29.340Z,47.20
2018-03-02T04:45:32.197Z,47.60
2018-03-02T04:48:08.993Z,47.70
2018-03-02T04:53:18.225Z,48.00
2018-03-02T05:01:17.920Z,48.00
2018-03-02T05:03:46.233Z,48.00
2018-03-02T05:06:17.904Z,48.10
2018-03-02T05:08:45.495Z,48.10
2018-03-02T05:11:17.483Z,48.30
2018-03-02T05:13:45.189Z,48.20
2018-03-02T05:16:17.330Z,48.20
2018-03-02T05:18:44.921Z,48.00
2018-03-02T05:21:16.997Z,48.10
2018-03-02T05:23:45.224Z,48.10
2018-03-02T05:26:26.389Z,48.40
2018-03-02T05:31:40.336Z,48.90
2018-03-02T05:34:13.339Z,48.90
2018-03-02T05:36:41.980Z,48.80
2018-03-02T05:39:25.437Z,48.90
2018-03-02T05:50:33.685Z,49.00
2018-03-02T05:56:28.409Z,49.30
2018-03-02T12:10:57.219Z,29.90
2018-03-02T12:16:39.670Z,30.00
2018-03-02T12:22:02.010Z,29.90
2018-03-02T12:33:03.222Z,29.50
2018-03-02T12:41:04.605Z,29.60
2018-03-02T12:43:55.481Z,29.20
2018-03-02T12:52:26.492Z,29.80
2018-03-02T14:08:25.514Z,35.60
2018-03-02T14:10:56.209Z,35.30
2018-03-02T14:16:32.625Z,36.10
2018-03-02T14:19:03.490Z,36.60
2018-03-02T14:21:33.215Z,36.60
2018-03-02T14:24:03.870Z,36.80
2018-03-02T14:26:44.789Z,35.80
2018-03-02T14:32:25.536Z,35.60
2018-03-02T14:35:12.016Z,35.60
2018-03-02T14:37:44.964Z,36.20
2018-03-02T14:40:24.992Z,35.90
2018-03-02T14:42:59.258Z,35.90
2018-03-02T14:45:43.837Z,36.30
2018-03-02T14:48:22.588Z,36.80
2018-03-02T14:50:50.993Z,36.80
2018-03-02T14:53:28.903Z,37.10
2018-03-02T14:58:51.604Z,36.30
2018-03-02T15:01:26.850Z,36.40
2018-03-02T15:03:54.379Z,36.60
2018-03-02T15:06:34.361Z,36.80
2018-03-02T15:09:03.456Z,37.00
2018-03-02T15:11:55.579Z,37.60
2018-03-02T15:17:28.364Z,37.50
2018-03-02T15:19:55.997Z,37.10
2018-03-02T15:22:55.578Z,38.20
2018-03-02T15:31:24.928Z,40.30
2018-03-02T15:33:55.596Z,40.60
2018-03-02T15:36:25.863Z,41.10
2018-03-02T15:42:30.643Z,41.10
2018-03-02T15:45:25.332Z,41.00
2018-03-02T15:47:56.823Z,41.10
2018-03-02T15:53:27.797Z,41.30
2018-03-02T16:04:55.053Z,42.00
2018-03-02T16:19:26.588Z,42.20
2018-03-02T16:21:57.250Z,42.30
2018-03-02T16:24:56.173Z,42.20
2018-03-02T16:30:27.431Z,42.40
2018-03-02T16:32:55.276Z,42.50
2018-03-02T16:35:27.838Z,42.50
2018-03-02T16:37:56.477Z,42.50
2018-03-02T16:40:28.385Z,42.80
2018-03-02T16:43:05.866Z,42.80
2018-03-02T16:48:23.827Z,41.70
2018-03-02T16:51:05.659Z,41.70
2018-03-02T16:53:39.722Z,41.60
2018-03-02T16:56:33.078Z,40.90
2018-03-02T17:05:10.256Z,40.30
2018-03-02T17:10:33.715Z,40.70
2018-03-02T17:13:08.159Z,40.20
2018-03-02T17:15:36.390Z,40.40
2018-03-02T17:18:05.793Z,40.50
2018-03-02T17:20:58.087Z,40.60
2018-03-02T17:23:34.051Z,40.60
2018-03-02T17:28:59.612Z,40.20
2018-03-02T17:31:27.160Z,40.10
2018-03-02T17:33:55.495Z,40.40
2018-03-02T17:36:26.029Z,40.40
2018-03-02T17:38:56.706Z,40.40
2018-03-02T17:41:24.253Z,40.50
2018-03-02T17:43:57.947Z,40.40
2018-03-02T17:46:27.559Z,40.50
2018-03-02T17:49:10.797Z,40.40
2018-03-02T17:51:49.855Z,40.40
2018-03-02T17:54:23.108Z,40.40
2018-03-02T17:56:59.470Z,40.40
2018-03-02T17:59:31.008Z,40.40
2018-03-02T18:01:59.505Z,41.20
2018-03-02T18:04:30.620Z,40.70
2018-03-02T18:06:59.940Z,40.60
2018-03-02T18:09:27.672Z,40.90
2018-03-02T18:11:57.310Z,40.90
2018-03-02T18:14:31.016Z,41.00
2018-03-02T18:16:58.707Z,41.00
2018-03-02T18:19:29.492Z,41.10
2018-03-02T18:21:59.475Z,41.10
2018-03-02T18:24:30.268Z,40.90
2018-03-02T18:27:01.041Z,40.90
2018-03-02T18:29:30.996Z,41.00
2018-03-02T18:32:01.147Z,41.30
2018-03-02T18:34:29.464Z,41.60
2018-03-02T18:36:58.142Z,41.50
2018-03-02T18:39:29.327Z,41.60
2018-03-02T18:42:02.537Z,41.60
2018-03-02T18:44:32.041Z,41.50
2018-03-02T18:47:00.392Z,41.50
2018-03-02T18:49:29.391Z,41.70
2018-03-02T18:52:02.038Z,41.70
2018-03-02T18:54:33.068Z,41.60
2018-03-02T18:57:02.974Z,42.10
2018-03-02T18:59:32.095Z,41.40
2018-03-02T19:01:59.812Z,41.40
2018-03-02T19:04:32.001Z,41.20
2018-03-02T19:07:06.422Z,41.30
2018-03-02T19:09:33.918Z,41.40
2018-03-02T19:12:02.030Z,41.30
2018-03-02T19:14:30.343Z,41.60
2018-03-02T19:17:04.411Z,41.70
2018-03-02T19:19:32.937Z,41.80
2018-03-02T19:22:00.763Z,41.80
2018-03-02T19:24:31.301Z,42.00
2018-03-02T19:27:00.886Z,42.30
2018-03-02T19:29:31.501Z,42.40
2018-03-02T19:32:00.246Z,42.40
2018-03-02T19:34:31.458Z,42.30
2018-03-02T19:37:01.390Z,42.60
2018-03-02T19:39:32.104Z,42.90
2018-03-02T19:42:00.355Z,42.80
2018-03-02T19:44:29.597Z,42.70
2018-03-02T19:47:04.118Z,42.90
2018-03-02T19:49:31.830Z,42.90
2018-03-02T19:52:00.653Z,43.10
2018-03-02T19:54:31.943Z,43.60
2018-03-02T19:57:06.134Z,43.60
2018-03-02T19:59:33.919Z,43.70
2018-03-02T20:02:02.324Z,43.90
2018-03-02T20:04:30.418Z,43.80
2018-03-02T20:07:01.225Z,43.80
2018-03-02T20:09:32.570Z,43.90
2018-03-02T20:12:01.500Z,43.90
2018-03-02T20:14:30.446Z,43.80
2018-03-02T20:17:01.854Z,43.70
2018-03-02T20:19:30.200Z,44.10
2018-03-02T20:22:00.945Z,44.30
2018-03-02T20:24:31.584Z,44.20
2018-03-02T20:27:02.806Z,44.30
2018-03-02T20:29:30.607Z,44.30
2018-03-02T20:32:02.637Z,44.30
2018-03-02T20:34:32.490Z,44.30
2018-03-02T20:37:02.074Z,44.30
2018-03-02T20:39:33.117Z,44.40
2018-03-02T20:42:01.574Z,44.30
2018-03-02T20:47:31.127Z,44.50
2018-03-02T20:50:03.825Z,44.50
2018-03-02T20:52:34.206Z,44.50
2018-03-02T20:55:01.721Z,44.40
2018-03-02T20:57:29.297Z,44.40
2018-03-02T20:59:56.948Z,44.30
2018-03-02T21:02:24.833Z,44.40
2018-03-02T21:04:55.580Z,44.40
2018-03-02T21:07:25.441Z,44.40
2018-03-02T21:09:53.215Z,44.30
2018-03-02T21:12:22.855Z,44.50
2018-03-02T21:14:52.360Z,44.80
2018-03-02T21:17:20.774Z,44.70
2018-03-02T21:19:48.265Z,44.70
2018-03-02T21:22:17.193Z,44.60
2018-03-02T21:24:44.957Z,44.60
2018-03-02T21:27:12.749Z,44.60
2018-03-02T21:29:43.390Z,44.50
2018-03-02T21:32:11.336Z,44.50
2018-03-02T21:34:39.839Z,44.40
2018-03-02T21:37:09.011Z,44.80
2018-03-02T21:39:36.570Z,44.60
2018-03-02T21:42:05.450Z,44.60
2018-03-02T21:44:33.014Z,44.50
2018-03-02T21:47:00.521Z,44.50
2018-03-02T21:49:29.348Z,44.40
2018-03-02T21:51:56.897Z,44.50
2018-03-02T21:54:24.409Z,44.40
2018-03-02T21:56:52.697Z,44.40
2018-03-02T21:59:21.073Z,44.40
2018-03-02T22:01:49.371Z,44.50
2018-03-02T22:04:16.941Z,44.40
2018-03-02T22:06:44.430Z,44.40
2018-03-02T22:09:11.920Z,44.40
2018-03-02T22:11:39.459Z,44.80
2018-03-02T22:14:07.769Z,44.40
2018-03-02T22:16:35.290Z,44.40
2018-03-02T22:19:03.090Z,44.50
2018-03-02T22:21:31.383Z,44.60
2018-03-02T22:24:00.594Z,44.50
2018-03-02T22:26:28.968Z,44.50
2018-03-02T22:28:57.229Z,44.90
2018-03-02T22:31:24.728Z,44.30
2018-03-02T22:33:52.571Z,44.50
2018-03-02T22:38:59.013Z,44.50
2018-03-02T22:41:30.456Z,44.70
2018-03-02T22:43:58.048Z,44.30
2018-03-02T22:46:26.357Z,44.30
2018-03-02T22:48:53.902Z,44.20
2018-03-02T22:51:22.701Z,44.40
2018-03-02T22:53:50.804Z,44.40
2018-03-02T22:56:19.085Z,43.70
2018-03-02T22:58:53.178Z,43.70
2018-03-02T23:01:20.682Z,44.70
2018-03-02T23:03:57.918Z,44.00
2018-03-02T23:06:26.133Z,43.80
2018-03-02T23:08:57.202Z,43.70
2018-03-02T23:11:28.374Z,43.70
2018-03-02T23:13:56.077Z,43.70
2018-03-02T23:16:23.648Z,44.20
2018-03-02T23:18:51.208Z,44.30
2018-03-02T23:21:19.455Z,44.00
2018-03-02T23:23:46.974Z,44.00
2018-03-02T23:26:14.481Z,44.00
2018-03-02T23:28:41.981Z,44.30
2018-03-02T23:31:09.770Z,44.10
2018-03-02T23:33:38.058Z,44.70
2018-03-02T23:36:06.371Z,44.40
2018-03-02T23:38:33.884Z,44.80
2018-03-02T23:41:01.434Z,44.30
2018-03-02T23:43:29.000Z,44.10
2018-03-02T23:45:56.540Z,44.40
2018-03-02T23:48:24.817Z,44.60
2018-03-02T23:50:53.086Z,45.30
2018-03-02T23:53:20.645Z,44.70
2018-03-02T23:55:48.139Z,45.00
2018-03-02T23:58:15.625Z,45.50
